sensor_id;sensor_type;location;lat;lon;timestamp;P1;durP1;ratioP1;P2;durP2;ratioP2
5209;SDS011;2624;48.048;11.706;2023-04-24T00:04:18;0.40;;;0.40;;
5209;SDS011;2624;48.048;11.706;2023-04-24T00:09:21;0.70;;;0.70;;
5209;SDS011;2624;48.048;11.706;2023-04-24T00:14:24;0.67;;;0.60;;
5209;SDS011;2624;48.048;11.706;2023-04-24T00:19:25;0.50;;;0.50;;
5209;SDS011;2624;48.048;11.706;2023-04-24T00:24:28;0.53;;;0.50;;
5209;SDS011;2624;48.048;11.706;2023-04-24T00:29:30;0.57;;;0.50;;
5209;SDS011;2624;48.048;11.706;2023-04-24T00:34:32;0.47;;;0.40;;
5209;SDS011;2624;48.048;11.706;2023-04-24T00:39:35;0.40;;;0.40;;
5209;SDS011;2624;48.048;11.706;2023-04-24T00:44:37;0.43;;;0.40;;
5209;SDS011;2624;48.048;11.706;2023-04-24T00:49:40;0.30;;;0.30;;
5209;SDS011;2624;48.048;11.706;2023-04-24T00:54:43;0.47;;;0.47;;
5209;SDS011;2624;48.048;11.706;2023-04-24T00:59:45;0.40;;;0.40;;
5209;SDS011;2624;48.048;11.706;2023-04-24T01:04:47;0.40;;;0.40;;
5209;SDS011;2624;48.048;11.706;2023-04-24T01:09:52;3.50;;;0.30;;
5209;SDS011;2624;48.048;11.706;2023-04-24T01:14:54;0.30;;;0.30;;
5209;SDS011;2624;48.048;11.706;2023-04-24T01:19:57;0.40;;;0.40;;
5209;SDS011;2624;48.048;11.706;2023-04-24T01:25:01;0.40;;;0.40;;
5209;SDS011;2624;48.048;11.706;2023-04-24T01:30:04;0.40;;;0.40;;
5209;SDS011;2624;48.048;11.706;2023-04-24T01:35:07;0.40;;;0.40;;
5209;SDS011;2624;48.048;11.706;2023-04-24T01:40:10;0.30;;;0.30;;
5209;SDS011;2624;48.048;11.706;2023-04-24T01:45:12;0.40;;;0.40;;
5209;SDS011;2624;48.048;11.706;2023-04-24T01:50:14;0.30;;;0.30;;
5209;SDS011;2624;48.048;11.706;2023-04-24T01:55:17;0.40;;;0.40;;
5209;SDS011;2624;48.048;11.706;2023-04-24T02:00:19;0.40;;;0.40;;
5209;SDS011;2624;48.048;11.706;2023-04-24T02:05:21;1.07;;;0.40;;
5209;SDS011;2624;48.048;11.706;2023-04-24T02:10:24;0.40;;;0.40;;
5209;SDS011;2624;48.048;11.706;2023-04-24T02:15:26;0.40;;;0.40;;
5209;SDS011;2624;48.048;11.706;2023-04-24T02:20:28;0.40;;;0.40;;
5209;SDS011;2624;48.048;11.706;2023-04-24T02:25:31;0.30;;;0.30;;
5209;SDS011;2624;48.048;11.706;2023-04-24T02:30:34;0.40;;;0.40;;
5209;SDS011;2624;48.048;11.706;2023-04-24T02:35:35;0.43;;;0.43;;
5209;SDS011;2624;48.048;11.706;2023-04-24T02:40:39;0.40;;;0.40;;
5209;SDS011;2624;48.048;11.706;2023-04-24T02:45:40;0.30;;;0.30;;
5209;SDS011;2624;48.048;11.706;2023-04-24T02:50:42;0.40;;;0.40;;
5209;SDS011;2624;48.048;11.706;2023-04-24T02:55:46;0.30;;;0.30;;
5209;SDS011;2624;48.048;11.706;2023-04-24T03:00:48;0.40;;;0.40;;
5209;SDS011;2624;48.048;11.706;2023-04-24T03:05:49;0.40;;;0.40;;
5209;SDS011;2624;48.048;11.706;2023-04-24T03:10:53;10.63;;;0.60;;
5209;SDS011;2624;48.048;11.706;2023-04-24T03:15:54;0.40;;;0.40;;
5209;SDS011;2624;48.048;11.706;2023-04-24T03:20:56;0.83;;;0.40;;
5209;SDS011;2624;48.048;11.706;2023-04-24T03:25:59;0.40;;;0.40;;
5209;SDS011;2624;48.048;11.706;2023-04-24T03:31:02;0.40;;;0.40;;
5209;SDS011;2624;48.048;11.706;2023-04-24T03:36:04;0.50;;;0.50;;
5209;SDS011;2624;48.048;11.706;2023-04-24T03:41:07;0.50;;;0.50;;
5209;SDS011;2624;48.048;11.706;2023-04-24T03:46:09;0.30;;;0.30;;
5209;SDS011;2624;48.048;11.706;2023-04-24T03:51:11;0.40;;;0.40;;
5209;SDS011;2624;48.048;11.706;2023-04-24T03:56:14;0.40;;;0.40;;
5209;SDS011;2624;48.048;11.706;2023-04-24T04:01:16;0.60;;;0.60;;
5209;SDS011;2624;48.048;11.706;2023-04-24T04:06:19;2.00;;;0.40;;
5209;SDS011;2624;48.048;11.706;2023-04-24T04:11:23;1.73;;;0.60;;
5209;SDS011;2624;48.048;11.706;2023-04-24T04:16:24;0.40;;;0.40;;
5209;SDS011;2624;48.048;11.706;2023-04-24T04:21:26;0.50;;;0.50;;
5209;SDS011;2624;48.048;11.706;2023-04-24T04:26:29;0.40;;;0.40;;
5209;SDS011;2624;48.048;11.706;2023-04-24T04:31:32;0.40;;;0.40;;
5209;SDS011;2624;48.048;11.706;2023-04-24T04:36:34;0.40;;;0.40;;
5209;SDS011;2624;48.048;11.706;2023-04-24T04:41:38;0.40;;;0.40;;
5209;SDS011;2624;48.048;11.706;2023-04-24T04:46:40;0.40;;;0.40;;
5209;SDS011;2624;48.048;11.706;2023-04-24T04:51:42;0.30;;;0.30;;
5209;SDS011;2624;48.048;11.706;2023-04-24T04:56:45;0.77;;;0.40;;
5209;SDS011;2624;48.048;11.706;2023-04-24T05:01:47;0.30;;;0.30;;
5209;SDS011;2624;48.048;11.706;2023-04-24T05:06:49;0.50;;;0.50;;
5209;SDS011;2624;48.048;11.706;2023-04-24T05:11:53;0.40;;;0.40;;
5209;SDS011;2624;48.048;11.706;2023-04-24T05:16:55;0.50;;;0.40;;
5209;SDS011;2624;48.048;11.706;2023-04-24T05:21:57;1.00;;;0.50;;
5209;SDS011;2624;48.048;11.706;2023-04-24T05:27:00;5.23;;;0.43;;
5209;SDS011;2624;48.048;11.706;2023-04-24T05:32:02;0.40;;;0.40;;
5209;SDS011;2624;48.048;11.706;2023-04-24T05:37:04;0.40;;;0.40;;
5209;SDS011;2624;48.048;11.706;2023-04-24T05:42:10;0.70;;;0.50;;
5209;SDS011;2624;48.048;11.706;2023-04-24T05:47:11;0.40;;;0.40;;
5209;SDS011;2624;48.048;11.706;2023-04-24T05:52:13;2.80;;;0.50;;
5209;SDS011;2624;48.048;11.706;2023-04-24T05:57:16;0.50;;;0.43;;
5209;SDS011;2624;48.048;11.706;2023-04-24T06:02:18;0.40;;;0.40;;
5209;SDS011;2624;48.048;11.706;2023-04-24T06:07:20;0.40;;;0.40;;
5209;SDS011;2624;48.048;11.706;2023-04-24T06:12:23;0.50;;;0.50;;
5209;SDS011;2624;48.048;11.706;2023-04-24T06:17:25;0.40;;;0.40;;
5209;SDS011;2624;48.048;11.706;2023-04-24T06:22:27;0.40;;;0.40;;
5209;SDS011;2624;48.048;11.706;2023-04-24T06:27:31;0.40;;;0.40;;
5209;SDS011;2624;48.048;11.706;2023-04-24T06:32:32;0.40;;;0.40;;
5209;SDS011;2624;48.048;11.706;2023-04-24T06:37:34;3.60;;;0.60;;
5209;SDS011;2624;48.048;11.706;2023-04-24T06:42:37;0.93;;;0.40;;
5209;SDS011;2624;48.048;11.706;2023-04-24T06:47:39;0.30;;;0.30;;
5209;SDS011;2624;48.048;11.706;2023-04-24T06:52:41;0.40;;;0.40;;
5209;SDS011;2624;48.048;11.706;2023-04-24T06:57:44;0.40;;;0.40;;
5209;SDS011;2624;48.048;11.706;2023-04-24T07:02:46;0.40;;;0.40;;
5209;SDS011;2624;48.048;11.706;2023-04-24T07:07:47;1.90;;;0.37;;
5209;SDS011;2624;48.048;11.706;2023-04-24T07:12:52;0.40;;;0.40;;
5209;SDS011;2624;48.048;11.706;2023-04-24T07:17:54;0.30;;;0.30;;
5209;SDS011;2624;48.048;11.706;2023-04-24T07:22:56;0.40;;;0.40;;
5209;SDS011;2624;48.048;11.706;2023-04-24T07:27:59;1.07;;;0.40;;
5209;SDS011;2624;48.048;11.706;2023-04-24T07:33:01;0.30;;;0.30;;
5209;SDS011;2624;48.048;11.706;2023-04-24T07:38:03;0.40;;;0.40;;
5209;SDS011;2624;48.048;11.706;2023-04-24T07:43:06;0.40;;;0.40;;
5209;SDS011;2624;48.048;11.706;2023-04-24T07:48:08;0.30;;;0.30;;
5209;SDS011;2624;48.048;11.706;2023-04-24T07:53:10;0.30;;;0.30;;
5209;SDS011;2624;48.048;11.706;2023-04-24T07:58:13;0.40;;;0.40;;
5209;SDS011;2624;48.048;11.706;2023-04-24T08:03:15;0.30;;;0.30;;
5209;SDS011;2624;48.048;11.706;2023-04-24T08:08:20;0.30;;;0.30;;
5209;SDS011;2624;48.048;11.706;2023-04-24T08:13:24;0.53;;;0.40;;
5209;SDS011;2624;48.048;11.706;2023-04-24T08:18:26;0.50;;;0.50;;
5209;SDS011;2624;48.048;11.706;2023-04-24T08:23:28;0.70;;;0.40;;
5209;SDS011;2624;48.048;11.706;2023-04-24T08:28:31;0.40;;;0.40;;
5209;SDS011;2624;48.048;11.706;2023-04-24T08:33:33;0.30;;;0.30;;
5209;SDS011;2624;48.048;11.706;2023-04-24T08:38:35;0.30;;;0.30;;
5209;SDS011;2624;48.048;11.706;2023-04-24T08:43:38;0.40;;;0.40;;
5209;SDS011;2624;48.048;11.706;2023-04-24T08:48:40;1.27;;;0.40;;
5209;SDS011;2624;48.048;11.706;2023-04-24T08:53:42;0.30;;;0.30;;
5209;SDS011;2624;48.048;11.706;2023-04-24T08:58:46;0.30;;;0.30;;
5209;SDS011;2624;48.048;11.706;2023-04-24T09:03:48;0.40;;;0.40;;
5209;SDS011;2624;48.048;11.706;2023-04-24T09:08:50;0.40;;;0.40;;
5209;SDS011;2624;48.048;11.706;2023-04-24T09:13:57;0.40;;;0.40;;
5209;SDS011;2624;48.048;11.706;2023-04-24T09:18:59;0.43;;;0.43;;
5209;SDS011;2624;48.048;11.706;2023-04-24T09:24:02;0.50;;;0.50;;
5209;SDS011;2624;48.048;11.706;2023-04-24T09:29:07;0.40;;;0.40;;
5209;SDS011;2624;48.048;11.706;2023-04-24T09:34:18;1.60;;;0.80;;
5209;SDS011;2624;48.048;11.706;2023-04-24T09:39:23;0.40;;;0.40;;
5209;SDS011;2624;48.048;11.706;2023-04-24T09:44:27;0.53;;;0.53;;
5209;SDS011;2624;48.048;11.706;2023-04-24T09:49:30;0.50;;;0.50;;
5209;SDS011;2624;48.048;11.706;2023-04-24T09:54:33;0.90;;;0.60;;
5209;SDS011;2624;48.048;11.706;2023-04-24T09:59:39;0.67;;;0.67;;
5209;SDS011;2624;48.048;11.706;2023-04-24T10:04:53;0.43;;;0.43;;
5209;SDS011;2624;48.048;11.706;2023-04-24T10:09:56;0.67;;;0.67;;
5209;SDS011;2624;48.048;11.706;2023-04-24T10:14:59;0.73;;;0.73;;
5209;SDS011;2624;48.048;11.706;2023-04-24T10:20:03;2.93;;;1.00;;
5209;SDS011;2624;48.048;11.706;2023-04-24T10:25:07;2.30;;;0.73;;
5209;SDS011;2624;48.048;11.706;2023-04-24T10:30:12;0.60;;;0.57;;
5209;SDS011;2624;48.048;11.706;2023-04-24T10:35:14;2.30;;;0.80;;
5209;SDS011;2624;48.048;11.706;2023-04-24T10:40:17;0.57;;;0.57;;
5209;SDS011;2624;48.048;11.706;2023-04-24T10:45:21;1.03;;;0.80;;
5209;SDS011;2624;48.048;11.706;2023-04-24T10:50:25;2.30;;;0.50;;
5209;SDS011;2624;48.048;11.706;2023-04-24T10:55:41;0.47;;;0.47;;
5209;SDS011;2624;48.048;11.706;2023-04-24T11:00:54;0.73;;;0.57;;
5209;SDS011;2624;48.048;11.706;2023-04-24T11:05:58;0.57;;;0.53;;
5209;SDS011;2624;48.048;11.706;2023-04-24T11:11:03;1.70;;;0.40;;
5209;SDS011;2624;48.048;11.706;2023-04-24T11:16:14;0.30;;;0.30;;
5209;SDS011;2624;48.048;11.706;2023-04-24T11:21:16;0.43;;;0.43;;
5209;SDS011;2624;48.048;11.706;2023-04-24T11:26:21;0.50;;;0.50;;
5209;SDS011;2624;48.048;11.706;2023-04-24T11:31:35;0.30;;;0.30;;
5209;SDS011;2624;48.048;11.706;2023-04-24T11:36:38;0.80;;;0.80;;
5209;SDS011;2624;48.048;11.706;2023-04-24T11:41:40;0.40;;;0.40;;
5209;SDS011;2624;48.048;11.706;2023-04-24T11:46:43;0.67;;;0.67;;
5209;SDS011;2624;48.048;11.706;2023-04-24T11:51:45;7.73;;;0.60;;
5209;SDS011;2624;48.048;11.706;2023-04-24T11:56:47;0.30;;;0.30;;
5209;SDS011;2624;48.048;11.706;2023-04-24T12:01:51;0.50;;;0.50;;
5209;SDS011;2624;48.048;11.706;2023-04-24T12:06:59;0.97;;;0.70;;
5209;SDS011;2624;48.048;11.706;2023-04-24T12:12:01;1.23;;;0.67;;
5209;SDS011;2624;48.048;11.706;2023-04-24T12:17:04;0.67;;;0.50;;
5209;SDS011;2624;48.048;11.706;2023-04-24T12:22:06;2.20;;;0.70;;
5209;SDS011;2624;48.048;11.706;2023-04-24T12:27:10;0.70;;;0.70;;
5209;SDS011;2624;48.048;11.706;2023-04-24T12:32:21;3.80;;;0.60;;
5209;SDS011;2624;48.048;11.706;2023-04-24T12:37:25;3.03;;;0.60;;
5209;SDS011;2624;48.048;11.706;2023-04-24T12:42:28;0.77;;;0.63;;
5209;SDS011;2624;48.048;11.706;2023-04-24T12:47:32;2.07;;;0.90;;
5209;SDS011;2624;48.048;11.706;2023-04-24T12:52:36;1.43;;;0.83;;
5209;SDS011;2624;48.048;11.706;2023-04-24T12:57:39;4.37;;;1.00;;
5209;SDS011;2624;48.048;11.706;2023-04-24T13:02:42;1.23;;;1.13;;
5209;SDS011;2624;48.048;11.706;2023-04-24T13:07:44;0.87;;;0.87;;
5209;SDS011;2624;48.048;11.706;2023-04-24T13:12:46;0.73;;;0.73;;
5209;SDS011;2624;48.048;11.706;2023-04-24T13:17:50;0.83;;;0.70;;
5209;SDS011;2624;48.048;11.706;2023-04-24T13:22:51;1.10;;;0.90;;
5209;SDS011;2624;48.048;11.706;2023-04-24T13:27:53;0.73;;;0.73;;
5209;SDS011;2624;48.048;11.706;2023-04-24T13:32:56;1.40;;;0.60;;
5209;SDS011;2624;48.048;11.706;2023-04-24T13:37:58;0.90;;;0.90;;
5209;SDS011;2624;48.048;11.706;2023-04-24T13:43:01;0.93;;;0.93;;
5209;SDS011;2624;48.048;11.706;2023-04-24T13:48:04;0.70;;;0.70;;
5209;SDS011;2624;48.048;11.706;2023-04-24T13:53:06;2.03;;;1.07;;
5209;SDS011;2624;48.048;11.706;2023-04-24T13:58:07;1.07;;;1.07;;
5209;SDS011;2624;48.048;11.706;2023-04-24T14:03:11;1.00;;;0.97;;
5209;SDS011;2624;48.048;11.706;2023-04-24T14:08:13;1.27;;;0.80;;
5209;SDS011;2624;48.048;11.706;2023-04-24T14:13:16;1.67;;;1.00;;
5209;SDS011;2624;48.048;11.706;2023-04-24T14:18:19;0.80;;;0.80;;
5209;SDS011;2624;48.048;11.706;2023-04-24T14:23:21;1.20;;;1.20;;
5209;SDS011;2624;48.048;11.706;2023-04-24T14:28:23;4.63;;;1.07;;
5209;SDS011;2624;48.048;11.706;2023-04-24T14:33:26;4.43;;;1.30;;
5209;SDS011;2624;48.048;11.706;2023-04-24T14:38:28;1.03;;;1.03;;
5209;SDS011;2624;48.048;11.706;2023-04-24T14:43:30;1.33;;;1.23;;
5209;SDS011;2624;48.048;11.706;2023-04-24T14:48:34;1.07;;;0.97;;
5209;SDS011;2624;48.048;11.706;2023-04-24T14:53:35;0.70;;;0.70;;
5209;SDS011;2624;48.048;11.706;2023-04-24T14:58:37;1.43;;;1.43;;
5209;SDS011;2624;48.048;11.706;2023-04-24T15:03:40;0.97;;;0.70;;
5209;SDS011;2624;48.048;11.706;2023-04-24T15:08:42;0.50;;;0.50;;
5209;SDS011;2624;48.048;11.706;2023-04-24T15:13:44;1.13;;;1.00;;
5209;SDS011;2624;48.048;11.706;2023-04-24T15:18:47;0.40;;;0.40;;
5209;SDS011;2624;48.048;11.706;2023-04-24T15:23:49;0.90;;;0.90;;
5209;SDS011;2624;48.048;11.706;2023-04-24T15:28:51;2.50;;;1.03;;
5209;SDS011;2624;48.048;11.706;2023-04-24T15:33:54;0.50;;;0.50;;
5209;SDS011;2624;48.048;11.706;2023-04-24T15:38:56;0.73;;;0.73;;
5209;SDS011;2624;48.048;11.706;2023-04-24T15:43:58;4.33;;;0.83;;
5209;SDS011;2624;48.048;11.706;2023-04-24T15:49:01;0.90;;;0.70;;
5209;SDS011;2624;48.048;11.706;2023-04-24T15:54:03;2.10;;;0.90;;
5209;SDS011;2624;48.048;11.706;2023-04-24T15:59:05;1.10;;;0.63;;
5209;SDS011;2624;48.048;11.706;2023-04-24T16:04:08;0.70;;;0.70;;
5209;SDS011;2624;48.048;11.706;2023-04-24T16:09:09;0.60;;;0.50;;
5209;SDS011;2624;48.048;11.706;2023-04-24T16:14:12;0.80;;;0.80;;
5209;SDS011;2624;48.048;11.706;2023-04-24T16:19:15;1.20;;;0.80;;
5209;SDS011;2624;48.048;11.706;2023-04-24T16:24:17;6.73;;;1.43;;
5209;SDS011;2624;48.048;11.706;2023-04-24T16:29:19;1.37;;;1.27;;
5209;SDS011;2624;48.048;11.706;2023-04-24T16:34:22;1.90;;;1.00;;
5209;SDS011;2624;48.048;11.706;2023-04-24T16:39:24;1.27;;;0.63;;
5209;SDS011;2624;48.048;11.706;2023-04-24T16:44:26;1.27;;;1.10;;
5209;SDS011;2624;48.048;11.706;2023-04-24T16:49:29;5.33;;;0.93;;
5209;SDS011;2624;48.048;11.706;2023-04-24T16:54:31;0.57;;;0.57;;
5209;SDS011;2624;48.048;11.706;2023-04-24T16:59:34;2.20;;;0.90;;
5209;SDS011;2624;48.048;11.706;2023-04-24T17:04:37;0.70;;;0.70;;
5209;SDS011;2624;48.048;11.706;2023-04-24T17:09:39;0.50;;;0.50;;
5209;SDS011;2624;48.048;11.706;2023-04-24T17:14:41;0.50;;;0.50;;
5209;SDS011;2624;48.048;11.706;2023-04-24T17:19:44;0.60;;;0.60;;
5209;SDS011;2624;48.048;11.706;2023-04-24T17:24:46;0.60;;;0.60;;
5209;SDS011;2624;48.048;11.706;2023-04-24T17:29:48;6.70;;;0.80;;
5209;SDS011;2624;48.048;11.706;2023-04-24T17:34:51;0.63;;;0.63;;
5209;SDS011;2624;48.048;11.706;2023-04-24T17:39:53;0.40;;;0.40;;
5209;SDS011;2624;48.048;11.706;2023-04-24T17:44:55;0.60;;;0.60;;
5209;SDS011;2624;48.048;11.706;2023-04-24T17:49:58;0.77;;;0.70;;
5209;SDS011;2624;48.048;11.706;2023-04-24T17:55:00;0.60;;;0.60;;
5209;SDS011;2624;48.048;11.706;2023-04-24T18:00:02;0.60;;;0.50;;
5209;SDS011;2624;48.048;11.706;2023-04-24T18:05:06;0.77;;;0.77;;
5209;SDS011;2624;48.048;11.706;2023-04-24T18:10:07;0.93;;;0.70;;
5209;SDS011;2624;48.048;11.706;2023-04-24T18:15:10;0.70;;;0.70;;
5209;SDS011;2624;48.048;11.706;2023-04-24T18:20:14;0.80;;;0.80;;
5209;SDS011;2624;48.048;11.706;2023-04-24T18:25:17;2.40;;;0.60;;
5209;SDS011;2624;48.048;11.706;2023-04-24T18:30:25;1.23;;;0.90;;
5209;SDS011;2624;48.048;11.706;2023-04-24T18:35:28;0.97;;;0.97;;
5209;SDS011;2624;48.048;11.706;2023-04-24T18:40:30;0.63;;;0.63;;
5209;SDS011;2624;48.048;11.706;2023-04-24T18:45:32;1.13;;;1.13;;
5209;SDS011;2624;48.048;11.706;2023-04-24T18:50:35;0.80;;;0.80;;
5209;SDS011;2624;48.048;11.706;2023-04-24T18:55:37;0.60;;;0.60;;
5209;SDS011;2624;48.048;11.706;2023-04-24T19:00:40;3.93;;;2.20;;
5209;SDS011;2624;48.048;11.706;2023-04-24T19:05:43;2.90;;;1.70;;
5209;SDS011;2624;48.048;11.706;2023-04-24T19:10:44;1.63;;;1.57;;
5209;SDS011;2624;48.048;11.706;2023-04-24T19:15:46;2.20;;;1.83;;
5209;SDS011;2624;48.048;11.706;2023-04-24T19:20:49;1.47;;;1.37;;
5209;SDS011;2624;48.048;11.706;2023-04-24T19:25:51;1.43;;;1.33;;
5209;SDS011;2624;48.048;11.706;2023-04-24T19:30:53;13.10;;;4.30;;
5209;SDS011;2624;48.048;11.706;2023-04-24T19:35:58;6.50;;;3.37;;
5209;SDS011;2624;48.048;11.706;2023-04-24T19:41:00;2.33;;;2.13;;
5209;SDS011;2624;48.048;11.706;2023-04-24T19:46:02;4.40;;;2.67;;
5209;SDS011;2624;48.048;11.706;2023-04-24T19:51:06;5.37;;;2.13;;
5209;SDS011;2624;48.048;11.706;2023-04-24T19:56:07;1.00;;;0.90;;
5209;SDS011;2624;48.048;11.706;2023-04-24T20:01:09;0.70;;;0.70;;
5209;SDS011;2624;48.048;11.706;2023-04-24T20:06:12;0.70;;;0.70;;
5209;SDS011;2624;48.048;11.706;2023-04-24T20:11:14;6.10;;;1.50;;
5209;SDS011;2624;48.048;11.706;2023-04-24T20:16:16;16.00;;;3.63;;
5209;SDS011;2624;48.048;11.706;2023-04-24T20:21:19;3.17;;;1.30;;
5209;SDS011;2624;48.048;11.706;2023-04-24T20:26:21;2.73;;;0.80;;
5209;SDS011;2624;48.048;11.706;2023-04-24T20:31:23;1.10;;;1.10;;
5209;SDS011;2624;48.048;11.706;2023-04-24T20:36:26;1.13;;;0.93;;
5209;SDS011;2624;48.048;11.706;2023-04-24T20:41:28;0.70;;;0.70;;
5209;SDS011;2624;48.048;11.706;2023-04-24T20:46:30;1.90;;;0.70;;
5209;SDS011;2624;48.048;11.706;2023-04-24T20:51:34;0.90;;;0.90;;
5209;SDS011;2624;48.048;11.706;2023-04-24T20:56:35;0.93;;;0.93;;
5209;SDS011;2624;48.048;11.706;2023-04-24T21:01:37;2.10;;;1.00;;
5209;SDS011;2624;48.048;11.706;2023-04-24T21:06:40;1.17;;;1.07;;
5209;SDS011;2624;48.048;11.706;2023-04-24T21:11:42;2.70;;;0.90;;
5209;SDS011;2624;48.048;11.706;2023-04-24T21:16:44;1.10;;;1.00;;
5209;SDS011;2624;48.048;11.706;2023-04-24T21:21:47;0.83;;;0.83;;
5209;SDS011;2624;48.048;11.706;2023-04-24T21:26:49;1.07;;;1.07;;
5209;SDS011;2624;48.048;11.706;2023-04-24T21:31:51;0.80;;;0.80;;
5209;SDS011;2624;48.048;11.706;2023-04-24T21:36:54;1.00;;;0.73;;
5209;SDS011;2624;48.048;11.706;2023-04-24T21:41:56;0.70;;;0.70;;
5209;SDS011;2624;48.048;11.706;2023-04-24T21:46:58;1.10;;;1.00;;
5209;SDS011;2624;48.048;11.706;2023-04-24T21:52:01;0.87;;;0.87;;
5209;SDS011;2624;48.048;11.706;2023-04-24T21:57:02;0.80;;;0.80;;
5209;SDS011;2624;48.048;11.706;2023-04-24T22:02:04;1.00;;;0.83;;
5209;SDS011;2624;48.048;11.706;2023-04-24T22:07:07;1.00;;;1.00;;
5209;SDS011;2624;48.048;11.706;2023-04-24T22:12:09;0.80;;;0.80;;
5209;SDS011;2624;48.048;11.706;2023-04-24T22:17:11;1.23;;;0.80;;
5209;SDS011;2624;48.048;11.706;2023-04-24T22:22:15;0.70;;;0.70;;
5209;SDS011;2624;48.048;11.706;2023-04-24T22:27:17;0.73;;;0.73;;
5209;SDS011;2624;48.048;11.706;2023-04-24T22:32:19;0.73;;;0.73;;
5209;SDS011;2624;48.048;11.706;2023-04-24T22:37:22;1.10;;;1.00;;
5209;SDS011;2624;48.048;11.706;2023-04-24T22:42:23;2.17;;;1.00;;
5209;SDS011;2624;48.048;11.706;2023-04-24T22:47:25;0.70;;;0.70;;
5209;SDS011;2624;48.048;11.706;2023-04-24T22:52:29;1.53;;;0.73;;
5209;SDS011;2624;48.048;11.706;2023-04-24T22:57:31;0.70;;;0.70;;
5209;SDS011;2624;48.048;11.706;2023-04-24T23:02:33;0.97;;;0.80;;
5209;SDS011;2624;48.048;11.706;2023-04-24T23:07:36;0.60;;;0.60;;
5209;SDS011;2624;48.048;11.706;2023-04-24T23:12:38;0.70;;;0.70;;
5209;SDS011;2624;48.048;11.706;2023-04-24T23:17:40;0.80;;;0.80;;
5209;SDS011;2624;48.048;11.706;2023-04-24T23:22:43;0.83;;;0.83;;
5209;SDS011;2624;48.048;11.706;2023-04-24T23:27:45;1.30;;;1.00;;
5209;SDS011;2624;48.048;11.706;2023-04-24T23:32:47;2.93;;;1.10;;
5209;SDS011;2624;48.048;11.706;2023-04-24T23:37:50;2.13;;;1.03;;
5209;SDS011;2624;48.048;11.706;2023-04-24T23:42:52;1.33;;;1.33;;
5209;SDS011;2624;48.048;11.706;2023-04-24T23:47:54;1.00;;;0.87;;
5209;SDS011;2624;48.048;11.706;2023-04-24T23:52:57;0.90;;;0.90;;
5209;SDS011;2624;48.048;11.706;2023-04-24T23:57:59;0.70;;;0.70;;
